Snohomish, WA (98290)

9:11 AM PDT on August 31, 2016 (GMT -0700)
| | Change Station

Elev -9999 ft 0.00 °N, 0.00 °E | Updated

Cloudy
Cloudy
65 °F
Feels Like 65 °F
N
7
Wind Variable Wind from South
Gusts 11 mph

Today
High -- | Low -- °F
--% Chance of Precip.
Yesterday
High -- | Low -- °F
Precip. -- in
Pressure 29.96 in
Visibility 10.0 miles
Clouds Mostly Cloudy 4900 ft
Overcast 7000 ft
Dew Point 52 °F
Humidity 63%
Rainfall --
Snow Depth Not available.
6:25 AM 7:49 PM
Waning Crescent, 1% visible
METAR KPAE 311553Z 18011KT 10SM BKN049 OVC070 17/12 A2996 RMK AO2 SLP144 T01670117
Pressure 29.96 in
Visibility 10.0 miles
Clouds Mostly Cloudy 4900 ft
Overcast 7000 ft
Dew Point 52 °F
Humidity 63%
Rainfall --
Snow Depth Not available.
6:25 AM 7:49 PM
Waning Crescent, 1% visible
METAR KPAE 311553Z 18011KT 10SM BKN049 OVC070 17/12 A2996 RMK AO2 SLP144 T01670117

10-Day Weather Forecast

Almanac

Astronomy

Aug. 31, 2016 Rise Set
Actual Time
Civil Twilight
Nautical Twilight
Astronomical Twilight
Moon
Length of Visible Light
Length of Day
Tomorrow will be .
, % of the Moon is Illuminated

Today's Extremes

State Highs State Lows

Community

WunderPhotos

Upload Photos

1,936,105 photos uploaded!

WunderBlog® & News

Nearby

Air Quality

  Air Quality AQ Index Pollutant
Not available.

Snow Depth

Station Depth Elevation

Earthquake Activity

City Distance Mag. Time & Date
Minimum magnitude displayed is 2.5.

Coastal Water Temperatures

Place Temperature

Stations

Nearby Weather Stations

Station Location Temp. Windchill Dew Point Humidity Wind Precip. Elev Updated Type
                   

Watches & Warnings

There are currently no watches in effect.